sensor_id;sensor_type;location;lat;lon;timestamp;temperature;humidity
20915;DHT22;10617;52.032;5.298;2022-08-26T00:00:39;23.60;99.90
20915;DHT22;10617;52.032;5.298;2022-08-26T00:04:40;23.50;99.90
20915;DHT22;10617;52.032;5.298;2022-08-26T00:08:42;23.40;99.90
20915;DHT22;10617;52.032;5.298;2022-08-26T00:12:44;23.40;99.90
20915;DHT22;10617;52.032;5.298;2022-08-26T00:16:46;23.40;99.90
20915;DHT22;10617;52.032;5.298;2022-08-26T00:20:49;23.40;99.90
20915;DHT22;10617;52.032;5.298;2022-08-26T00:24:51;23.40;99.90
20915;DHT22;10617;52.032;5.298;2022-08-26T00:28:53;23.40;99.90
20915;DHT22;10617;52.032;5.298;2022-08-26T00:37:35;23.20;99.90
20915;DHT22;10617;52.032;5.298;2022-08-26T00:41:37;23.20;99.90
20915;DHT22;10617;52.032;5.298;2022-08-26T00:45:44;23.20;99.90
20915;DHT22;10617;52.032;5.298;2022-08-26T00:49:47;23.20;99.90
20915;DHT22;10617;52.032;5.298;2022-08-26T00:53:51;23.10;99.90
20915;DHT22;10617;52.032;5.298;2022-08-26T00:57:53;23.10;99.90
20915;DHT22;10617;52.032;5.298;2022-08-26T01:01:55;23.10;99.90
20915;DHT22;10617;52.032;5.298;2022-08-26T01:05:57;23.10;99.90
20915;DHT22;10617;52.032;5.298;2022-08-26T01:10:00;23.10;99.90
20915;DHT22;10617;52.032;5.298;2022-08-26T01:14:04;23.10;99.90
20915;DHT22;10617;52.032;5.298;2022-08-26T01:18:06;23.00;99.90
20915;DHT22;10617;52.032;5.298;2022-08-26T01:22:16;23.00;99.90
20915;DHT22;10617;52.032;5.298;2022-08-26T01:26:28;23.00;99.90
20915;DHT22;10617;52.032;5.298;2022-08-26T01:30:30;23.00;99.90
20915;DHT22;10617;52.032;5.298;2022-08-26T01:34:34;23.00;99.90
20915;DHT22;10617;52.032;5.298;2022-08-26T01:38:36;23.00;99.90
20915;DHT22;10617;52.032;5.298;2022-08-26T01:42:39;23.00;99.90
20915;DHT22;10617;52.032;5.298;2022-08-26T01:46:42;23.00;99.90
20915;DHT22;10617;52.032;5.298;2022-08-26T01:50:44;23.00;99.90
20915;DHT22;10617;52.032;5.298;2022-08-26T01:54:46;22.90;99.90
20915;DHT22;10617;52.032;5.298;2022-08-26T01:58:51;22.80;99.90
20915;DHT22;10617;52.032;5.298;2022-08-26T02:02:54;22.80;99.90
20915;DHT22;10617;52.032;5.298;2022-08-26T02:07:16;22.80;99.90
20915;DHT22;10617;52.032;5.298;2022-08-26T02:11:19;22.70;99.90
20915;DHT22;10617;52.032;5.298;2022-08-26T02:15:21;22.70;99.90
20915;DHT22;10617;52.032;5.298;2022-08-26T02:19:26;22.70;99.90
20915;DHT22;10617;52.032;5.298;2022-08-26T02:23:30;22.70;99.90
20915;DHT22;10617;52.032;5.298;2022-08-26T02:27:32;22.70;99.90
20915;DHT22;10617;52.032;5.298;2022-08-26T02:31:35;22.70;99.90
20915;DHT22;10617;52.032;5.298;2022-08-26T02:35:37;22.70;99.90
20915;DHT22;10617;52.032;5.298;2022-08-26T02:39:40;22.70;99.90
20915;DHT22;10617;52.032;5.298;2022-08-26T02:43:43;22.70;99.90
20915;DHT22;10617;52.032;5.298;2022-08-26T02:47:44;22.60;99.90
20915;DHT22;10617;52.032;5.298;2022-08-26T02:51:46;22.60;99.90
20915;DHT22;10617;52.032;5.298;2022-08-26T02:55:49;22.60;99.90
20915;DHT22;10617;52.032;5.298;2022-08-26T02:59:51;22.50;99.90
20915;DHT22;10617;52.032;5.298;2022-08-26T03:03:53;22.40;99.90
20915;DHT22;10617;52.032;5.298;2022-08-26T03:07:55;22.40;99.90
20915;DHT22;10617;52.032;5.298;2022-08-26T03:11:56;22.40;99.90
20915;DHT22;10617;52.032;5.298;2022-08-26T03:16:01;22.30;99.90
20915;DHT22;10617;52.032;5.298;2022-08-26T03:20:04;22.30;99.90
20915;DHT22;10617;52.032;5.298;2022-08-26T03:24:10;22.30;99.90
20915;DHT22;10617;52.032;5.298;2022-08-26T03:28:12;22.30;99.90
20915;DHT22;10617;52.032;5.298;2022-08-26T03:32:13;22.30;99.90
20915;DHT22;10617;52.032;5.298;2022-08-26T03:36:17;22.30;99.90
20915;DHT22;10617;52.032;5.298;2022-08-26T03:40:19;22.30;99.90
20915;DHT22;10617;52.032;5.298;2022-08-26T03:44:21;22.30;99.90
20915;DHT22;10617;52.032;5.298;2022-08-26T03:48:22;22.30;99.90
20915;DHT22;10617;52.032;5.298;2022-08-26T03:52:24;22.20;99.90
20915;DHT22;10617;52.032;5.298;2022-08-26T03:56:26;22.20;99.90
20915;DHT22;10617;52.032;5.298;2022-08-26T04:00:27;22.10;99.90
20915;DHT22;10617;52.032;5.298;2022-08-26T04:04:29;22.10;99.90
20915;DHT22;10617;52.032;5.298;2022-08-26T04:08:31;22.10;99.90
20915;DHT22;10617;52.032;5.298;2022-08-26T04:12:33;22.10;99.90
20915;DHT22;10617;52.032;5.298;2022-08-26T04:16:36;22.10;99.90
20915;DHT22;10617;52.032;5.298;2022-08-26T04:20:37;22.10;99.90
20915;DHT22;10617;52.032;5.298;2022-08-26T04:24:39;22.10;99.90
20915;DHT22;10617;52.032;5.298;2022-08-26T04:28:41;22.10;99.90
20915;DHT22;10617;52.032;5.298;2022-08-26T04:32:43;22.10;99.90
20915;DHT22;10617;52.032;5.298;2022-08-26T04:36:44;22.00;99.90
20915;DHT22;10617;52.032;5.298;2022-08-26T04:40:46;22.00;99.90
20915;DHT22;10617;52.032;5.298;2022-08-26T04:44:47;22.00;99.90
20915;DHT22;10617;52.032;5.298;2022-08-26T04:48:51;21.90;99.90
20915;DHT22;10617;52.032;5.298;2022-08-26T04:52:52;21.90;99.90
20915;DHT22;10617;52.032;5.298;2022-08-26T04:56:55;21.90;99.90
20915;DHT22;10617;52.032;5.298;2022-08-26T05:00:57;21.90;99.90
20915;DHT22;10617;52.032;5.298;2022-08-26T05:04:58;21.90;99.90
20915;DHT22;10617;52.032;5.298;2022-08-26T05:09:00;21.80;99.90
20915;DHT22;10617;52.032;5.298;2022-08-26T05:13:02;21.80;99.90
20915;DHT22;10617;52.032;5.298;2022-08-26T05:17:04;21.80;99.90
20915;DHT22;10617;52.032;5.298;2022-08-26T05:21:06;21.80;99.90
20915;DHT22;10617;52.032;5.298;2022-08-26T05:25:07;21.80;99.90
20915;DHT22;10617;52.032;5.298;2022-08-26T05:29:09;21.70;99.90
20915;DHT22;10617;52.032;5.298;2022-08-26T05:33:11;21.70;99.90
20915;DHT22;10617;52.032;5.298;2022-08-26T05:37:13;21.70;99.90
20915;DHT22;10617;52.032;5.298;2022-08-26T05:41:19;21.70;99.90
20915;DHT22;10617;52.032;5.298;2022-08-26T05:45:23;21.70;99.90
20915;DHT22;10617;52.032;5.298;2022-08-26T05:49:25;21.70;99.90
20915;DHT22;10617;52.032;5.298;2022-08-26T05:53:27;21.70;99.90
20915;DHT22;10617;52.032;5.298;2022-08-26T05:57:30;21.70;99.90
20915;DHT22;10617;52.032;5.298;2022-08-26T06:01:32;21.70;99.90
20915;DHT22;10617;52.032;5.298;2022-08-26T06:05:37;21.60;99.90
20915;DHT22;10617;52.032;5.298;2022-08-26T06:09:38;21.60;99.90
20915;DHT22;10617;52.032;5.298;2022-08-26T06:13:40;21.60;99.90
20915;DHT22;10617;52.032;5.298;2022-08-26T06:17:42;21.60;99.90
20915;DHT22;10617;52.032;5.298;2022-08-26T06:21:45;21.60;99.90
20915;DHT22;10617;52.032;5.298;2022-08-26T06:25:47;21.60;99.90
20915;DHT22;10617;52.032;5.298;2022-08-26T06:29:49;21.60;99.90
20915;DHT22;10617;52.032;5.298;2022-08-26T06:33:52;21.60;99.90
20915;DHT22;10617;52.032;5.298;2022-08-26T06:37:53;21.60;99.90
20915;DHT22;10617;52.032;5.298;2022-08-26T06:41:56;21.60;99.90
20915;DHT22;10617;52.032;5.298;2022-08-26T06:45:59;21.60;99.90
20915;DHT22;10617;52.032;5.298;2022-08-26T06:50:01;21.70;99.90
20915;DHT22;10617;52.032;5.298;2022-08-26T06:54:03;21.70;99.90
20915;DHT22;10617;52.032;5.298;2022-08-26T06:58:04;21.70;99.90
20915;DHT22;10617;52.032;5.298;2022-08-26T07:02:06;21.70;99.90
20915;DHT22;10617;52.032;5.298;2022-08-26T07:06:08;21.70;99.90
20915;DHT22;10617;52.032;5.298;2022-08-26T07:10:11;21.80;99.90
20915;DHT22;10617;52.032;5.298;2022-08-26T07:14:12;21.80;99.90
20915;DHT22;10617;52.032;5.298;2022-08-26T07:18:14;21.70;99.90
20915;DHT22;10617;52.032;5.298;2022-08-26T07:22:17;21.70;99.90
20915;DHT22;10617;52.032;5.298;2022-08-26T07:26:20;21.70;99.90
20915;DHT22;10617;52.032;5.298;2022-08-26T07:30:22;21.80;99.90
20915;DHT22;10617;52.032;5.298;2022-08-26T07:34:24;21.80;99.90
20915;DHT22;10617;52.032;5.298;2022-08-26T07:38:26;21.80;99.90
20915;DHT22;10617;52.032;5.298;2022-08-26T07:42:28;21.90;99.90
20915;DHT22;10617;52.032;5.298;2022-08-26T07:46:30;21.90;99.90
20915;DHT22;10617;52.032;5.298;2022-08-26T07:50:32;21.90;99.90
20915;DHT22;10617;52.032;5.298;2022-08-26T07:54:49;22.00;99.90
20915;DHT22;10617;52.032;5.298;2022-08-26T07:58:51;21.90;99.90
20915;DHT22;10617;52.032;5.298;2022-08-26T08:02:53;21.90;99.90
20915;DHT22;10617;52.032;5.298;2022-08-26T08:06:55;21.80;99.90
20915;DHT22;10617;52.032;5.298;2022-08-26T08:10:57;21.70;99.90
20915;DHT22;10617;52.032;5.298;2022-08-26T08:14:58;21.80;99.90
20915;DHT22;10617;52.032;5.298;2022-08-26T08:19:00;21.80;99.90
20915;DHT22;10617;52.032;5.298;2022-08-26T08:23:02;21.80;99.90
20915;DHT22;10617;52.032;5.298;2022-08-26T08:27:04;21.80;99.90
20915;DHT22;10617;52.032;5.298;2022-08-26T08:31:06;21.90;99.90
20915;DHT22;10617;52.032;5.298;2022-08-26T08:35:08;21.90;99.90
20915;DHT22;10617;52.032;5.298;2022-08-26T08:39:11;21.80;99.90
20915;DHT22;10617;52.032;5.298;2022-08-26T08:43:14;21.80;99.90
20915;DHT22;10617;52.032;5.298;2022-08-26T08:47:30;21.80;99.90
20915;DHT22;10617;52.032;5.298;2022-08-26T08:51:34;21.80;99.90
20915;DHT22;10617;52.032;5.298;2022-08-26T08:59:44;21.90;99.90
20915;DHT22;10617;52.032;5.298;2022-08-26T09:11:57;21.80;99.90
20915;DHT22;10617;52.032;5.298;2022-08-26T09:20:08;21.80;99.90
20915;DHT22;10617;52.032;5.298;2022-08-26T09:24:14;21.80;99.90
20915;DHT22;10617;52.032;5.298;2022-08-26T09:28:17;21.80;99.90
20915;DHT22;10617;52.032;5.298;2022-08-26T09:32:22;21.80;99.90
20915;DHT22;10617;52.032;5.298;2022-08-26T09:36:38;21.90;99.90
20915;DHT22;10617;52.032;5.298;2022-08-26T09:40:41;21.90;99.90
20915;DHT22;10617;52.032;5.298;2022-08-26T09:45:00;22.00;99.90
20915;DHT22;10617;52.032;5.298;2022-08-26T09:49:21;22.00;99.90
20915;DHT22;10617;52.032;5.298;2022-08-26T09:53:24;22.10;99.90
20915;DHT22;10617;52.032;5.298;2022-08-26T09:57:32;22.00;99.90
20915;DHT22;10617;52.032;5.298;2022-08-26T10:01:35;22.00;99.90
20915;DHT22;10617;52.032;5.298;2022-08-26T10:05:42;22.00;99.90
20915;DHT22;10617;52.032;5.298;2022-08-26T10:09:45;22.00;99.90
20915;DHT22;10617;52.032;5.298;2022-08-26T10:13:50;22.00;99.90
20915;DHT22;10617;52.032;5.298;2022-08-26T10:18:12;22.00;99.90
20915;DHT22;10617;52.032;5.298;2022-08-26T10:22:18;21.90;99.90
20915;DHT22;10617;52.032;5.298;2022-08-26T10:26:22;21.90;99.90
20915;DHT22;10617;52.032;5.298;2022-08-26T10:30:30;21.90;99.90
20915;DHT22;10617;52.032;5.298;2022-08-26T10:34:34;21.90;99.90
20915;DHT22;10617;52.032;5.298;2022-08-26T10:38:37;21.90;99.90
20915;DHT22;10617;52.032;5.298;2022-08-26T10:46:43;21.90;99.90
20915;DHT22;10617;52.032;5.298;2022-08-26T10:50:46;21.90;99.90
20915;DHT22;10617;52.032;5.298;2022-08-26T11:24:02;22.00;99.90
20915;DHT22;10617;52.032;5.298;2022-08-26T11:28:04;22.00;99.90
20915;DHT22;10617;52.032;5.298;2022-08-26T11:32:05;22.00;99.90
20915;DHT22;10617;52.032;5.298;2022-08-26T11:40:35;22.10;99.90
20915;DHT22;10617;52.032;5.298;2022-08-26T11:44:39;22.20;99.90
20915;DHT22;10617;52.032;5.298;2022-08-26T11:48:42;22.20;99.90
20915;DHT22;10617;52.032;5.298;2022-08-26T11:53:17;22.20;99.90
20915;DHT22;10617;52.032;5.298;2022-08-26T11:57:12;22.30;99.90
20915;DHT22;10617;52.032;5.298;2022-08-26T12:01:20;22.40;99.90
20915;DHT22;10617;52.032;5.298;2022-08-26T12:05:28;22.40;99.90
20915;DHT22;10617;52.032;5.298;2022-08-26T12:09:32;22.40;99.90
20915;DHT22;10617;52.032;5.298;2022-08-26T12:13:37;22.40;99.90
20915;DHT22;10617;52.032;5.298;2022-08-26T12:17:39;22.40;99.90
20915;DHT22;10617;52.032;5.298;2022-08-26T12:21:42;22.40;99.90
20915;DHT22;10617;52.032;5.298;2022-08-26T12:25:48;22.40;99.90
20915;DHT22;10617;52.032;5.298;2022-08-26T12:34:05;22.30;99.90
20915;DHT22;10617;52.032;5.298;2022-08-26T12:38:07;22.30;99.90
20915;DHT22;10617;52.032;5.298;2022-08-26T12:46:14;22.20;99.90
20915;DHT22;10617;52.032;5.298;2022-08-26T12:50:18;22.20;99.90
20915;DHT22;10617;52.032;5.298;2022-08-26T12:54:20;22.20;99.90
20915;DHT22;10617;52.032;5.298;2022-08-26T12:58:42;22.30;99.90
20915;DHT22;10617;52.032;5.298;2022-08-26T13:02:44;22.30;99.90
20915;DHT22;10617;52.032;5.298;2022-08-26T13:06:46;22.40;99.90
20915;DHT22;10617;52.032;5.298;2022-08-26T13:10:47;22.40;99.90
20915;DHT22;10617;52.032;5.298;2022-08-26T13:15:02;22.30;99.90
20915;DHT22;10617;52.032;5.298;2022-08-26T13:19:05;22.30;99.90
20915;DHT22;10617;52.032;5.298;2022-08-26T13:23:10;22.30;99.90
20915;DHT22;10617;52.032;5.298;2022-08-26T13:27:13;22.20;99.90
20915;DHT22;10617;52.032;5.298;2022-08-26T13:31:14;22.20;99.90
20915;DHT22;10617;52.032;5.298;2022-08-26T13:35:16;22.30;99.90
20915;DHT22;10617;52.032;5.298;2022-08-26T13:39:18;22.30;99.90
20915;DHT22;10617;52.032;5.298;2022-08-26T13:43:20;22.30;99.90
20915;DHT22;10617;52.032;5.298;2022-08-26T13:47:21;22.30;99.90
20915;DHT22;10617;52.032;5.298;2022-08-26T13:51:25;22.30;99.90
20915;DHT22;10617;52.032;5.298;2022-08-26T13:55:27;22.30;99.90
20915;DHT22;10617;52.032;5.298;2022-08-26T13:59:29;22.30;99.90
20915;DHT22;10617;52.032;5.298;2022-08-26T14:03:30;22.30;99.90
20915;DHT22;10617;52.032;5.298;2022-08-26T14:07:32;22.30;99.90
20915;DHT22;10617;52.032;5.298;2022-08-26T14:11:34;22.20;99.90
20915;DHT22;10617;52.032;5.298;2022-08-26T14:15:39;22.20;99.90
20915;DHT22;10617;52.032;5.298;2022-08-26T14:19:41;22.10;99.90
20915;DHT22;10617;52.032;5.298;2022-08-26T14:23:45;22.00;99.90
20915;DHT22;10617;52.032;5.298;2022-08-26T14:27:50;22.00;99.90
20915;DHT22;10617;52.032;5.298;2022-08-26T14:31:53;21.90;99.90
20915;DHT22;10617;52.032;5.298;2022-08-26T14:35:57;21.90;99.90
20915;DHT22;10617;52.032;5.298;2022-08-26T14:40:19;21.90;99.90
20915;DHT22;10617;52.032;5.298;2022-08-26T14:44:23;21.90;99.90
20915;DHT22;10617;52.032;5.298;2022-08-26T14:48:26;22.00;99.90
20915;DHT22;10617;52.032;5.298;2022-08-26T14:52:27;22.00;99.90
20915;DHT22;10617;52.032;5.298;2022-08-26T14:56:30;22.00;99.90
20915;DHT22;10617;52.032;5.298;2022-08-26T15:00:32;22.00;99.90
20915;DHT22;10617;52.032;5.298;2022-08-26T15:04:35;22.10;99.90
20915;DHT22;10617;52.032;5.298;2022-08-26T15:08:37;22.10;99.90
20915;DHT22;10617;52.032;5.298;2022-08-26T15:12:39;22.20;99.90
20915;DHT22;10617;52.032;5.298;2022-08-26T15:16:41;22.20;99.90
20915;DHT22;10617;52.032;5.298;2022-08-26T15:20:42;22.20;99.90
20915;DHT22;10617;52.032;5.298;2022-08-26T15:24:44;22.20;99.90
20915;DHT22;10617;52.032;5.298;2022-08-26T15:28:46;22.20;99.90
20915;DHT22;10617;52.032;5.298;2022-08-26T15:32:48;22.20;99.90
20915;DHT22;10617;52.032;5.298;2022-08-26T15:36:50;22.20;99.90
20915;DHT22;10617;52.032;5.298;2022-08-26T15:40:51;22.20;99.90
20915;DHT22;10617;52.032;5.298;2022-08-26T15:44:53;22.30;99.90
20915;DHT22;10617;52.032;5.298;2022-08-26T15:48:56;22.30;99.90
20915;DHT22;10617;52.032;5.298;2022-08-26T15:52:57;22.20;99.90
20915;DHT22;10617;52.032;5.298;2022-08-26T15:57:01;22.10;99.90
20915;DHT22;10617;52.032;5.298;2022-08-26T16:01:03;22.10;99.90
20915;DHT22;10617;52.032;5.298;2022-08-26T16:05:05;22.00;99.90
20915;DHT22;10617;52.032;5.298;2022-08-26T16:09:07;22.00;99.90
20915;DHT22;10617;52.032;5.298;2022-08-26T16:13:09;22.00;99.90
20915;DHT22;10617;52.032;5.298;2022-08-26T16:17:13;22.00;99.90
20915;DHT22;10617;52.032;5.298;2022-08-26T16:21:15;22.00;99.90
20915;DHT22;10617;52.032;5.298;2022-08-26T16:25:17;22.00;99.90
20915;DHT22;10617;52.032;5.298;2022-08-26T16:29:19;21.90;99.90
20915;DHT22;10617;52.032;5.298;2022-08-26T16:33:21;21.90;99.90
20915;DHT22;10617;52.032;5.298;2022-08-26T16:37:29;21.80;99.90
20915;DHT22;10617;52.032;5.298;2022-08-26T16:41:31;21.80;99.90
20915;DHT22;10617;52.032;5.298;2022-08-26T16:45:33;21.90;99.90
20915;DHT22;10617;52.032;5.298;2022-08-26T16:49:38;21.90;99.90
20915;DHT22;10617;52.032;5.298;2022-08-26T16:53:41;21.90;99.90
20915;DHT22;10617;52.032;5.298;2022-08-26T16:57:43;21.90;99.90
20915;DHT22;10617;52.032;5.298;2022-08-26T17:01:45;21.90;99.90
20915;DHT22;10617;52.032;5.298;2022-08-26T17:05:47;21.90;99.90
20915;DHT22;10617;52.032;5.298;2022-08-26T17:09:48;21.90;99.90
20915;DHT22;10617;52.032;5.298;2022-08-26T17:13:50;21.90;99.90
20915;DHT22;10617;52.032;5.298;2022-08-26T17:17:52;21.90;99.90
20915;DHT22;10617;52.032;5.298;2022-08-26T17:21:54;21.90;99.90
20915;DHT22;10617;52.032;5.298;2022-08-26T17:25:55;21.80;99.90
20915;DHT22;10617;52.032;5.298;2022-08-26T17:29:57;21.80;99.90
20915;DHT22;10617;52.032;5.298;2022-08-26T17:33:59;21.70;99.90
20915;DHT22;10617;52.032;5.298;2022-08-26T17:38:01;21.70;99.90
20915;DHT22;10617;52.032;5.298;2022-08-26T17:42:03;21.70;99.90
20915;DHT22;10617;52.032;5.298;2022-08-26T17:46:05;21.70;99.90
20915;DHT22;10617;52.032;5.298;2022-08-26T17:50:09;21.70;99.90
20915;DHT22;10617;52.032;5.298;2022-08-26T17:54:11;21.60;99.90
20915;DHT22;10617;52.032;5.298;2022-08-26T17:58:13;21.60;99.90
20915;DHT22;10617;52.032;5.298;2022-08-26T18:02:15;21.60;99.90
20915;DHT22;10617;52.032;5.298;2022-08-26T18:06:17;21.60;99.90
20915;DHT22;10617;52.032;5.298;2022-08-26T18:10:19;21.60;99.90
20915;DHT22;10617;52.032;5.298;2022-08-26T18:14:21;21.60;99.90
20915;DHT22;10617;52.032;5.298;2022-08-26T18:18:22;21.60;99.90
20915;DHT22;10617;52.032;5.298;2022-08-26T18:22:24;21.50;99.90
20915;DHT22;10617;52.032;5.298;2022-08-26T18:26:28;21.50;99.90
20915;DHT22;10617;52.032;5.298;2022-08-26T18:30:30;21.50;99.90
20915;DHT22;10617;52.032;5.298;2022-08-26T18:34:32;21.50;99.90
20915;DHT22;10617;52.032;5.298;2022-08-26T18:38:34;21.40;99.90
20915;DHT22;10617;52.032;5.298;2022-08-26T18:42:36;21.40;99.90
20915;DHT22;10617;52.032;5.298;2022-08-26T18:46:38;21.40;99.90
20915;DHT22;10617;52.032;5.298;2022-08-26T18:50:40;21.30;99.90
20915;DHT22;10617;52.032;5.298;2022-08-26T18:54:46;21.30;99.90
20915;DHT22;10617;52.032;5.298;2022-08-26T18:58:48;21.30;99.90
20915;DHT22;10617;52.032;5.298;2022-08-26T19:02:49;21.30;99.90
20915;DHT22;10617;52.032;5.298;2022-08-26T19:06:52;21.30;99.90
20915;DHT22;10617;52.032;5.298;2022-08-26T19:10:54;21.30;99.90
20915;DHT22;10617;52.032;5.298;2022-08-26T19:14:56;21.20;99.90
20915;DHT22;10617;52.032;5.298;2022-08-26T19:18:58;21.20;99.90
20915;DHT22;10617;52.032;5.298;2022-08-26T19:23:01;21.20;99.90
20915;DHT22;10617;52.032;5.298;2022-08-26T19:27:16;21.20;99.90
20915;DHT22;10617;52.032;5.298;2022-08-26T19:31:17;21.10;99.90
20915;DHT22;10617;52.032;5.298;2022-08-26T19:35:19;21.10;99.90
20915;DHT22;10617;52.032;5.298;2022-08-26T19:39:21;21.10;99.90
20915;DHT22;10617;52.032;5.298;2022-08-26T19:43:22;21.10;99.90
20915;DHT22;10617;52.032;5.298;2022-08-26T19:47:24;21.10;99.90
20915;DHT22;10617;52.032;5.298;2022-08-26T19:51:27;21.00;99.90
20915;DHT22;10617;52.032;5.298;2022-08-26T19:55:29;21.00;99.90
20915;DHT22;10617;52.032;5.298;2022-08-26T19:59:31;21.00;99.90
20915;DHT22;10617;52.032;5.298;2022-08-26T20:03:33;20.90;99.90
20915;DHT22;10617;52.032;5.298;2022-08-26T20:07:35;20.90;99.90
20915;DHT22;10617;52.032;5.298;2022-08-26T20:11:37;20.80;99.90
20915;DHT22;10617;52.032;5.298;2022-08-26T20:15:39;20.80;99.90
20915;DHT22;10617;52.032;5.298;2022-08-26T20:19:40;20.80;99.90
20915;DHT22;10617;52.032;5.298;2022-08-26T20:24:02;20.70;99.90
20915;DHT22;10617;52.032;5.298;2022-08-26T20:28:04;20.70;99.90
20915;DHT22;10617;52.032;5.298;2022-08-26T20:32:06;20.70;99.90
20915;DHT22;10617;52.032;5.298;2022-08-26T20:36:08;20.60;99.90
20915;DHT22;10617;52.032;5.298;2022-08-26T20:40:11;20.60;99.90
20915;DHT22;10617;52.032;5.298;2022-08-26T20:44:13;20.50;99.90
20915;DHT22;10617;52.032;5.298;2022-08-26T20:48:14;20.50;99.90
20915;DHT22;10617;52.032;5.298;2022-08-26T20:52:16;20.40;99.90
20915;DHT22;10617;52.032;5.298;2022-08-26T20:56:19;20.40;99.90
20915;DHT22;10617;52.032;5.298;2022-08-26T21:00:24;20.30;99.90
20915;DHT22;10617;52.032;5.298;2022-08-26T21:04:26;20.20;99.90
20915;DHT22;10617;52.032;5.298;2022-08-26T21:08:29;20.20;99.90
20915;DHT22;10617;52.032;5.298;2022-08-26T21:12:33;20.10;99.90
20915;DHT22;10617;52.032;5.298;2022-08-26T21:16:36;20.10;99.90
20915;DHT22;10617;52.032;5.298;2022-08-26T21:20:38;20.10;99.90
20915;DHT22;10617;52.032;5.298;2022-08-26T21:24:40;20.10;99.90
20915;DHT22;10617;52.032;5.298;2022-08-26T21:28:42;20.00;99.90
20915;DHT22;10617;52.032;5.298;2022-08-26T21:32:44;20.00;99.90
20915;DHT22;10617;52.032;5.298;2022-08-26T21:36:46;19.90;99.90
20915;DHT22;10617;52.032;5.298;2022-08-26T21:41:06;19.80;99.90
20915;DHT22;10617;52.032;5.298;2022-08-26T21:45:08;19.70;99.90
20915;DHT22;10617;52.032;5.298;2022-08-26T21:49:11;19.60;99.90
20915;DHT22;10617;52.032;5.298;2022-08-26T21:53:13;19.50;99.90
20915;DHT22;10617;52.032;5.298;2022-08-26T21:57:16;19.40;99.90
20915;DHT22;10617;52.032;5.298;2022-08-26T22:01:18;19.40;99.90
20915;DHT22;10617;52.032;5.298;2022-08-26T22:05:21;19.30;99.90
20915;DHT22;10617;52.032;5.298;2022-08-26T22:09:24;19.30;99.90
20915;DHT22;10617;52.032;5.298;2022-08-26T22:13:27;19.30;99.90
20915;DHT22;10617;52.032;5.298;2022-08-26T22:17:29;19.30;99.90
20915;DHT22;10617;52.032;5.298;2022-08-26T22:21:31;19.20;99.90
20915;DHT22;10617;52.032;5.298;2022-08-26T22:25:33;19.20;99.90
20915;DHT22;10617;52.032;5.298;2022-08-26T22:29:35;19.20;99.90
20915;DHT22;10617;52.032;5.298;2022-08-26T22:33:37;19.20;99.90
20915;DHT22;10617;52.032;5.298;2022-08-26T22:37:39;19.20;99.90
20915;DHT22;10617;52.032;5.298;2022-08-26T22:41:41;19.20;99.90
20915;DHT22;10617;52.032;5.298;2022-08-26T22:45:44;19.20;99.90
20915;DHT22;10617;52.032;5.298;2022-08-26T22:49:46;19.20;99.90
20915;DHT22;10617;52.032;5.298;2022-08-26T22:53:48;19.20;99.90
20915;DHT22;10617;52.032;5.298;2022-08-26T22:57:49;19.30;99.90
20915;DHT22;10617;52.032;5.298;2022-08-26T23:01:51;19.30;99.90
20915;DHT22;10617;52.032;5.298;2022-08-26T23:05:53;19.30;99.90
20915;DHT22;10617;52.032;5.298;2022-08-26T23:09:56;19.40;99.90
20915;DHT22;10617;52.032;5.298;2022-08-26T23:13:57;19.40;99.90
20915;DHT22;10617;52.032;5.298;2022-08-26T23:18:01;19.40;99.90
20915;DHT22;10617;52.032;5.298;2022-08-26T23:22:03;19.40;99.90
20915;DHT22;10617;52.032;5.298;2022-08-26T23:26:05;19.40;99.90
20915;DHT22;10617;52.032;5.298;2022-08-26T23:30:12;19.40;99.90
20915;DHT22;10617;52.032;5.298;2022-08-26T23:34:14;19.30;99.90
20915;DHT22;10617;52.032;5.298;2022-08-26T23:38:35;19.30;99.90
20915;DHT22;10617;52.032;5.298;2022-08-26T23:42:36;19.30;99.90
20915;DHT22;10617;52.032;5.298;2022-08-26T23:46:38;19.20;99.90
20915;DHT22;10617;52.032;5.298;2022-08-26T23:50:40;19.20;99.90
20915;DHT22;10617;52.032;5.298;2022-08-26T23:55:00;19.20;99.90
20915;DHT22;10617;52.032;5.298;2022-08-26T23:59:02;19.20;99.90
